Lombardville, Illinois
Current Conditions -  °F | °C
As of 10:35 AM on Wednesday 22 Oct 2014 (Local Time) from KC75 Reporting Station
Clear Clear  
Wind Chill: 46°   Ceiling: Unl
Heat Index: 49°   Visibility: 10mi
Dew Point: 39°   Wind: 7mph
Humidity: 69%   Direction: 140°SE
Pressure: 30.35"   Gusts: NA
Location:  41.1472°N, 89.6399°W
Report Text: KC75 221535Z AUTO 14006KT 10SM CLR 10/04 A3035 RMK AO2 T00950040
Loading
Personal Weather Stations






























Interactive Weather Map New forecast layout! Learn more

10-Day Weather Forecast

Advertisements
Track Severe Weather on mobile